sensor_id;sensor_type;location;lat;lon;timestamp;P1;durP1;ratioP1;P2;durP2;ratioP2
73747;SDS011;62056;52.130;5.428;2023-12-07T00:02:02;4.20;;;2.72;;
73747;SDS011;62056;52.130;5.428;2023-12-07T00:04:30;7.32;;;4.50;;
73747;SDS011;62056;52.130;5.428;2023-12-07T00:06:56;9.77;;;3.83;;
73747;SDS011;62056;52.130;5.428;2023-12-07T00:09:24;6.50;;;4.63;;
73747;SDS011;62056;52.130;5.428;2023-12-07T00:11:50;6.45;;;4.50;;
73747;SDS011;62056;52.130;5.428;2023-12-07T00:14:17;7.90;;;4.40;;
73747;SDS011;62056;52.130;5.428;2023-12-07T00:16:44;5.57;;;4.28;;
73747;SDS011;62056;52.130;5.428;2023-12-07T00:19:11;7.63;;;4.53;;
73747;SDS011;62056;52.130;5.428;2023-12-07T00:21:38;5.67;;;4.53;;
73747;SDS011;62056;52.130;5.428;2023-12-07T00:24:05;7.13;;;5.15;;
73747;SDS011;62056;52.130;5.428;2023-12-07T00:26:33;8.57;;;4.63;;
73747;SDS011;62056;52.130;5.428;2023-12-07T00:29:00;10.32;;;4.93;;
73747;SDS011;62056;52.130;5.428;2023-12-07T00:31:27;9.60;;;4.10;;
73747;SDS011;62056;52.130;5.428;2023-12-07T00:33:54;8.20;;;4.50;;
73747;SDS011;62056;52.130;5.428;2023-12-07T00:36:21;6.15;;;4.57;;
73747;SDS011;62056;52.130;5.428;2023-12-07T00:38:48;11.63;;;4.18;;
73747;SDS011;62056;52.130;5.428;2023-12-07T00:41:15;5.18;;;4.07;;
73747;SDS011;62056;52.130;5.428;2023-12-07T00:43:43;10.18;;;4.72;;
73747;SDS011;62056;52.130;5.428;2023-12-07T00:46:10;7.00;;;5.03;;
73747;SDS011;62056;52.130;5.428;2023-12-07T00:48:37;4.78;;;4.03;;
73747;SDS011;62056;52.130;5.428;2023-12-07T00:51:04;3.75;;;3.10;;
73747;SDS011;62056;52.130;5.428;2023-12-07T00:53:33;4.78;;;3.40;;
73747;SDS011;62056;52.130;5.428;2023-12-07T00:56:00;6.32;;;4.35;;
73747;SDS011;62056;52.130;5.428;2023-12-07T00:58:26;5.63;;;4.00;;
73747;SDS011;62056;52.130;5.428;2023-12-07T01:00:53;6.38;;;3.25;;
73747;SDS011;62056;52.130;5.428;2023-12-07T01:03:20;19.08;;;8.50;;
73747;SDS011;62056;52.130;5.428;2023-12-07T01:05:47;10.27;;;4.88;;
73747;SDS011;62056;52.130;5.428;2023-12-07T01:08:14;5.22;;;3.85;;
73747;SDS011;62056;52.130;5.428;2023-12-07T01:10:41;5.77;;;4.03;;
73747;SDS011;62056;52.130;5.428;2023-12-07T01:13:07;7.40;;;4.72;;
73747;SDS011;62056;52.130;5.428;2023-12-07T01:15:34;7.93;;;4.57;;
73747;SDS011;62056;52.130;5.428;2023-12-07T01:18:01;6.18;;;4.93;;
73747;SDS011;62056;52.130;5.428;2023-12-07T01:20:28;18.40;;;5.05;;
73747;SDS011;62056;52.130;5.428;2023-12-07T01:22:55;6.53;;;4.57;;
73747;SDS011;62056;52.130;5.428;2023-12-07T01:25:22;9.07;;;5.15;;
73747;SDS011;62056;52.130;5.428;2023-12-07T01:27:49;8.57;;;4.60;;
73747;SDS011;62056;52.130;5.428;2023-12-07T01:30:16;7.97;;;4.32;;
73747;SDS011;62056;52.130;5.428;2023-12-07T01:32:43;10.20;;;4.88;;
73747;SDS011;62056;52.130;5.428;2023-12-07T01:35:10;5.97;;;5.00;;
73747;SDS011;62056;52.130;5.428;2023-12-07T01:37:37;6.50;;;4.57;;
73747;SDS011;62056;52.130;5.428;2023-12-07T01:40:04;10.20;;;4.93;;
73747;SDS011;62056;52.130;5.428;2023-12-07T01:42:39;8.13;;;5.20;;
73747;SDS011;62056;52.130;5.428;2023-12-07T01:45:06;6.68;;;4.63;;
73747;SDS011;62056;52.130;5.428;2023-12-07T01:47:33;12.07;;;5.47;;
73747;SDS011;62056;52.130;5.428;2023-12-07T01:50:02;12.23;;;5.53;;
73747;SDS011;62056;52.130;5.428;2023-12-07T01:52:45;8.98;;;5.00;;
73747;SDS011;62056;52.130;5.428;2023-12-07T01:55:14;8.13;;;4.53;;
73747;SDS011;62056;52.130;5.428;2023-12-07T01:57:41;6.15;;;4.60;;
73747;SDS011;62056;52.130;5.428;2023-12-07T02:00:11;7.20;;;4.60;;
73747;SDS011;62056;52.130;5.428;2023-12-07T02:02:39;6.05;;;4.63;;
73747;SDS011;62056;52.130;5.428;2023-12-07T02:05:06;6.90;;;4.80;;
73747;SDS011;62056;52.130;5.428;2023-12-07T02:07:34;5.78;;;3.53;;
73747;SDS011;62056;52.130;5.428;2023-12-07T02:10:00;12.77;;;5.40;;
73747;SDS011;62056;52.130;5.428;2023-12-07T02:12:27;10.50;;;4.67;;
73747;SDS011;62056;52.130;5.428;2023-12-07T02:14:56;7.05;;;4.70;;
73747;SDS011;62056;52.130;5.428;2023-12-07T02:17:27;5.70;;;4.25;;
73747;SDS011;62056;52.130;5.428;2023-12-07T02:20:01;6.40;;;4.57;;
73747;SDS011;62056;52.130;5.428;2023-12-07T02:22:42;6.72;;;4.95;;
73747;SDS011;62056;52.130;5.428;2023-12-07T02:25:14;8.77;;;5.60;;
73747;SDS011;62056;52.130;5.428;2023-12-07T02:27:44;6.00;;;3.72;;
73747;SDS011;62056;52.130;5.428;2023-12-07T02:30:15;7.72;;;4.63;;
73747;SDS011;62056;52.130;5.428;2023-12-07T02:32:42;6.05;;;3.95;;
73747;SDS011;62056;52.130;5.428;2023-12-07T02:35:11;8.63;;;5.05;;
73747;SDS011;62056;52.130;5.428;2023-12-07T02:37:43;9.83;;;5.73;;
73747;SDS011;62056;52.130;5.428;2023-12-07T02:40:11;9.65;;;5.88;;
73747;SDS011;62056;52.130;5.428;2023-12-07T02:42:41;8.00;;;5.72;;
73747;SDS011;62056;52.130;5.428;2023-12-07T02:45:10;9.43;;;4.85;;
73747;SDS011;62056;52.130;5.428;2023-12-07T02:47:37;8.05;;;4.80;;
73747;SDS011;62056;52.130;5.428;2023-12-07T02:50:05;5.00;;;4.40;;
73747;SDS011;62056;52.130;5.428;2023-12-07T02:52:33;7.45;;;4.40;;
73747;SDS011;62056;52.130;5.428;2023-12-07T02:55:01;8.77;;;4.63;;
73747;SDS011;62056;52.130;5.428;2023-12-07T02:57:29;7.18;;;3.83;;
73747;SDS011;62056;52.130;5.428;2023-12-07T02:59:56;10.68;;;4.25;;
73747;SDS011;62056;52.130;5.428;2023-12-07T03:02:23;9.40;;;4.17;;
73747;SDS011;62056;52.130;5.428;2023-12-07T03:04:51;9.57;;;5.20;;
73747;SDS011;62056;52.130;5.428;2023-12-07T03:07:18;15.45;;;5.90;;
73747;SDS011;62056;52.130;5.428;2023-12-07T03:09:44;10.75;;;5.78;;
73747;SDS011;62056;52.130;5.428;2023-12-07T03:12:11;13.75;;;8.77;;
73747;SDS011;62056;52.130;5.428;2023-12-07T03:14:38;12.40;;;5.23;;
73747;SDS011;62056;52.130;5.428;2023-12-07T03:17:04;8.90;;;4.53;;
73747;SDS011;62056;52.130;5.428;2023-12-07T03:19:31;8.07;;;4.38;;
73747;SDS011;62056;52.130;5.428;2023-12-07T03:21:58;9.10;;;4.18;;
73747;SDS011;62056;52.130;5.428;2023-12-07T03:24:24;8.55;;;4.90;;
73747;SDS011;62056;52.130;5.428;2023-12-07T03:26:52;9.00;;;3.87;;
73747;SDS011;62056;52.130;5.428;2023-12-07T03:29:18;6.40;;;3.75;;
73747;SDS011;62056;52.130;5.428;2023-12-07T03:31:45;6.38;;;4.70;;
73747;SDS011;62056;52.130;5.428;2023-12-07T03:34:12;6.70;;;5.57;;
73747;SDS011;62056;52.130;5.428;2023-12-07T03:36:45;10.27;;;5.15;;
73747;SDS011;62056;52.130;5.428;2023-12-07T03:39:13;11.13;;;5.70;;
73747;SDS011;62056;52.130;5.428;2023-12-07T03:41:41;9.68;;;4.43;;
73747;SDS011;62056;52.130;5.428;2023-12-07T03:44:08;6.00;;;4.57;;
73747;SDS011;62056;52.130;5.428;2023-12-07T03:46:34;9.98;;;4.20;;
73747;SDS011;62056;52.130;5.428;2023-12-07T03:49:01;4.97;;;3.45;;
73747;SDS011;62056;52.130;5.428;2023-12-07T03:51:29;7.83;;;4.20;;
73747;SDS011;62056;52.130;5.428;2023-12-07T03:53:56;7.68;;;5.32;;
73747;SDS011;62056;52.130;5.428;2023-12-07T03:56:29;7.15;;;4.80;;
73747;SDS011;62056;52.130;5.428;2023-12-07T03:58:57;6.40;;;3.92;;
73747;SDS011;62056;52.130;5.428;2023-12-07T04:01:27;7.75;;;4.40;;
73747;SDS011;62056;52.130;5.428;2023-12-07T04:03:55;10.83;;;6.47;;
73747;SDS011;62056;52.130;5.428;2023-12-07T04:06:23;9.73;;;5.07;;
73747;SDS011;62056;52.130;5.428;2023-12-07T04:08:51;8.55;;;3.50;;
73747;SDS011;62056;52.130;5.428;2023-12-07T04:11:17;16.10;;;10.13;;
73747;SDS011;62056;52.130;5.428;2023-12-07T04:13:45;8.68;;;3.42;;
73747;SDS011;62056;52.130;5.428;2023-12-07T04:16:12;10.70;;;5.67;;
73747;SDS011;62056;52.130;5.428;2023-12-07T04:18:39;10.82;;;6.18;;
73747;SDS011;62056;52.130;5.428;2023-12-07T04:21:08;10.30;;;6.43;;
73747;SDS011;62056;52.130;5.428;2023-12-07T04:23:35;9.73;;;7.03;;
73747;SDS011;62056;52.130;5.428;2023-12-07T04:26:01;11.32;;;6.20;;
73747;SDS011;62056;52.130;5.428;2023-12-07T04:28:36;21.50;;;11.30;;
73747;SDS011;62056;52.130;5.428;2023-12-07T04:31:02;9.82;;;6.28;;
73747;SDS011;62056;52.130;5.428;2023-12-07T04:33:30;8.75;;;4.68;;
73747;SDS011;62056;52.130;5.428;2023-12-07T04:35:57;17.98;;;7.82;;
73747;SDS011;62056;52.130;5.428;2023-12-07T04:38:24;13.65;;;7.38;;
73747;SDS011;62056;52.130;5.428;2023-12-07T04:40:50;18.30;;;7.80;;
73747;SDS011;62056;52.130;5.428;2023-12-07T04:43:17;15.48;;;6.75;;
73747;SDS011;62056;52.130;5.428;2023-12-07T04:45:44;14.48;;;5.50;;
73747;SDS011;62056;52.130;5.428;2023-12-07T04:48:11;11.27;;;5.50;;
73747;SDS011;62056;52.130;5.428;2023-12-07T04:50:38;13.05;;;6.38;;
73747;SDS011;62056;52.130;5.428;2023-12-07T04:53:05;15.53;;;8.10;;
73747;SDS011;62056;52.130;5.428;2023-12-07T04:55:31;6.07;;;4.85;;
73747;SDS011;62056;52.130;5.428;2023-12-07T04:57:58;12.93;;;7.20;;
73747;SDS011;62056;52.130;5.428;2023-12-07T05:00:25;15.70;;;6.40;;
73747;SDS011;62056;52.130;5.428;2023-12-07T05:02:52;8.90;;;5.53;;
73747;SDS011;62056;52.130;5.428;2023-12-07T05:05:18;13.97;;;5.47;;
73747;SDS011;62056;52.130;5.428;2023-12-07T05:07:45;6.93;;;5.00;;
73747;SDS011;62056;52.130;5.428;2023-12-07T05:10:13;12.98;;;6.00;;
73747;SDS011;62056;52.130;5.428;2023-12-07T05:12:40;15.10;;;5.13;;
73747;SDS011;62056;52.130;5.428;2023-12-07T05:15:07;24.88;;;7.10;;
73747;SDS011;62056;52.130;5.428;2023-12-07T05:17:34;12.90;;;4.70;;
73747;SDS011;62056;52.130;5.428;2023-12-07T05:20:01;8.35;;;4.82;;
73747;SDS011;62056;52.130;5.428;2023-12-07T05:22:29;22.73;;;4.93;;
73747;SDS011;62056;52.130;5.428;2023-12-07T05:24:55;17.58;;;5.95;;
73747;SDS011;62056;52.130;5.428;2023-12-07T05:27:23;12.00;;;5.35;;
73747;SDS011;62056;52.130;5.428;2023-12-07T05:29:49;12.97;;;5.47;;
73747;SDS011;62056;52.130;5.428;2023-12-07T05:32:17;7.55;;;4.47;;
73747;SDS011;62056;52.130;5.428;2023-12-07T05:34:44;6.55;;;5.05;;
73747;SDS011;62056;52.130;5.428;2023-12-07T05:37:11;27.48;;;5.43;;
73747;SDS011;62056;52.130;5.428;2023-12-07T05:39:37;8.80;;;5.85;;
73747;SDS011;62056;52.130;5.428;2023-12-07T05:42:05;17.67;;;5.93;;
73747;SDS011;62056;52.130;5.428;2023-12-07T05:44:32;21.77;;;4.68;;
73747;SDS011;62056;52.130;5.428;2023-12-07T05:46:58;16.05;;;5.78;;
73747;SDS011;62056;52.130;5.428;2023-12-07T05:49:26;13.13;;;7.80;;
73747;SDS011;62056;52.130;5.428;2023-12-07T05:51:53;15.88;;;10.52;;
73747;SDS011;62056;52.130;5.428;2023-12-07T05:54:20;13.17;;;5.30;;
73747;SDS011;62056;52.130;5.428;2023-12-07T05:56:49;35.00;;;8.45;;
73747;SDS011;62056;52.130;5.428;2023-12-07T05:59:16;7.60;;;5.45;;
73747;SDS011;62056;52.130;5.428;2023-12-07T06:01:43;18.92;;;7.30;;
73747;SDS011;62056;52.130;5.428;2023-12-07T06:04:11;20.83;;;6.00;;
73747;SDS011;62056;52.130;5.428;2023-12-07T06:06:39;8.53;;;5.80;;
73747;SDS011;62056;52.130;5.428;2023-12-07T06:09:06;14.40;;;5.10;;
73747;SDS011;62056;52.130;5.428;2023-12-07T06:11:32;28.10;;;7.03;;
73747;SDS011;62056;52.130;5.428;2023-12-07T06:14:00;25.92;;;6.75;;
73747;SDS011;62056;52.130;5.428;2023-12-07T06:16:27;18.77;;;6.57;;
73747;SDS011;62056;52.130;5.428;2023-12-07T06:18:54;24.10;;;7.10;;
73747;SDS011;62056;52.130;5.428;2023-12-07T06:21:21;6.88;;;4.18;;
73747;SDS011;62056;52.130;5.428;2023-12-07T06:23:47;9.95;;;5.78;;
73747;SDS011;62056;52.130;5.428;2023-12-07T06:26:15;7.13;;;4.78;;
73747;SDS011;62056;52.130;5.428;2023-12-07T06:28:42;8.88;;;6.70;;
73747;SDS011;62056;52.130;5.428;2023-12-07T06:31:09;9.43;;;4.70;;
73747;SDS011;62056;52.130;5.428;2023-12-07T06:33:35;22.10;;;9.57;;
73747;SDS011;62056;52.130;5.428;2023-12-07T06:36:02;8.05;;;6.50;;
73747;SDS011;62056;52.130;5.428;2023-12-07T06:38:30;17.50;;;6.47;;
73747;SDS011;62056;52.130;5.428;2023-12-07T06:40:56;17.85;;;9.65;;
73747;SDS011;62056;52.130;5.428;2023-12-07T06:43:23;9.20;;;5.97;;
73747;SDS011;62056;52.130;5.428;2023-12-07T06:45:50;19.27;;;6.85;;
73747;SDS011;62056;52.130;5.428;2023-12-07T06:48:18;12.90;;;7.10;;
73747;SDS011;62056;52.130;5.428;2023-12-07T06:50:45;8.60;;;6.10;;
73747;SDS011;62056;52.130;5.428;2023-12-07T06:53:13;11.98;;;7.50;;
73747;SDS011;62056;52.130;5.428;2023-12-07T06:55:40;29.47;;;6.87;;
73747;SDS011;62056;52.130;5.428;2023-12-07T06:58:11;12.18;;;7.25;;
73747;SDS011;62056;52.130;5.428;2023-12-07T07:00:37;29.85;;;7.70;;
73747;SDS011;62056;52.130;5.428;2023-12-07T07:03:04;28.58;;;9.15;;
73747;SDS011;62056;52.130;5.428;2023-12-07T07:05:32;8.88;;;6.38;;
73747;SDS011;62056;52.130;5.428;2023-12-07T07:08:01;10.10;;;7.27;;
73747;SDS011;62056;52.130;5.428;2023-12-07T07:10:28;13.00;;;7.45;;
73747;SDS011;62056;52.130;5.428;2023-12-07T07:12:54;8.95;;;6.63;;
73747;SDS011;62056;52.130;5.428;2023-12-07T07:15:21;18.45;;;7.38;;
73747;SDS011;62056;52.130;5.428;2023-12-07T07:17:51;5.63;;;4.82;;
73747;SDS011;62056;52.130;5.428;2023-12-07T07:20:18;32.87;;;7.90;;
73747;SDS011;62056;52.130;5.428;2023-12-07T07:22:45;11.32;;;7.07;;
73747;SDS011;62056;52.130;5.428;2023-12-07T07:25:12;16.92;;;7.90;;
73747;SDS011;62056;52.130;5.428;2023-12-07T07:27:40;18.85;;;8.13;;
73747;SDS011;62056;52.130;5.428;2023-12-07T07:30:08;45.13;;;9.02;;
73747;SDS011;62056;52.130;5.428;2023-12-07T07:32:35;10.27;;;7.47;;
73747;SDS011;62056;52.130;5.428;2023-12-07T07:35:02;39.03;;;8.00;;
73747;SDS011;62056;52.130;5.428;2023-12-07T07:37:29;15.77;;;7.55;;
73747;SDS011;62056;52.130;5.428;2023-12-07T07:39:56;17.02;;;8.15;;
73747;SDS011;62056;52.130;5.428;2023-12-07T07:42:25;28.42;;;7.30;;
73747;SDS011;62056;52.130;5.428;2023-12-07T07:44:51;34.90;;;7.73;;
73747;SDS011;62056;52.130;5.428;2023-12-07T07:47:18;24.92;;;8.48;;
73747;SDS011;62056;52.130;5.428;2023-12-07T07:49:45;16.42;;;7.60;;
73747;SDS011;62056;52.130;5.428;2023-12-07T07:52:12;11.07;;;6.43;;
73747;SDS011;62056;52.130;5.428;2023-12-07T07:54:38;16.35;;;8.05;;
73747;SDS011;62056;52.130;5.428;2023-12-07T07:57:05;31.83;;;7.80;;
73747;SDS011;62056;52.130;5.428;2023-12-07T07:59:32;12.07;;;6.97;;
73747;SDS011;62056;52.130;5.428;2023-12-07T08:01:59;18.08;;;7.78;;
73747;SDS011;62056;52.130;5.428;2023-12-07T08:04:25;32.15;;;7.10;;
73747;SDS011;62056;52.130;5.428;2023-12-07T08:06:52;12.93;;;5.75;;
73747;SDS011;62056;52.130;5.428;2023-12-07T08:09:23;9.97;;;6.03;;
73747;SDS011;62056;52.130;5.428;2023-12-07T08:11:50;12.90;;;6.15;;
73747;SDS011;62056;52.130;5.428;2023-12-07T08:14:17;9.23;;;6.40;;
73747;SDS011;62056;52.130;5.428;2023-12-07T08:16:48;6.75;;;5.43;;
73747;SDS011;62056;52.130;5.428;2023-12-07T08:19:15;10.88;;;6.13;;
73747;SDS011;62056;52.130;5.428;2023-12-07T08:21:42;14.80;;;5.87;;
73747;SDS011;62056;52.130;5.428;2023-12-07T08:24:09;8.02;;;6.93;;
73747;SDS011;62056;52.130;5.428;2023-12-07T08:26:35;13.02;;;6.55;;
73747;SDS011;62056;52.130;5.428;2023-12-07T08:29:02;20.38;;;5.57;;
73747;SDS011;62056;52.130;5.428;2023-12-07T08:31:34;12.93;;;7.22;;
73747;SDS011;62056;52.130;5.428;2023-12-07T08:34:01;16.90;;;7.13;;
73747;SDS011;62056;52.130;5.428;2023-12-07T08:36:27;11.00;;;6.97;;
73747;SDS011;62056;52.130;5.428;2023-12-07T08:38:54;13.50;;;7.10;;
73747;SDS011;62056;52.130;5.428;2023-12-07T08:41:21;16.75;;;6.55;;
73747;SDS011;62056;52.130;5.428;2023-12-07T08:43:48;11.18;;;6.00;;
73747;SDS011;62056;52.130;5.428;2023-12-07T08:46:15;9.70;;;7.00;;
73747;SDS011;62056;52.130;5.428;2023-12-07T08:48:47;24.15;;;7.15;;
73747;SDS011;62056;52.130;5.428;2023-12-07T08:51:28;13.25;;;8.30;;
73747;SDS011;62056;52.130;5.428;2023-12-07T08:54:27;14.07;;;5.63;;
73747;SDS011;62056;52.130;5.428;2023-12-07T08:56:54;10.52;;;5.70;;
73747;SDS011;62056;52.130;5.428;2023-12-07T08:59:22;11.00;;;6.03;;
73747;SDS011;62056;52.130;5.428;2023-12-07T09:01:49;11.25;;;6.95;;
73747;SDS011;62056;52.130;5.428;2023-12-07T09:04:16;24.80;;;8.52;;
73747;SDS011;62056;52.130;5.428;2023-12-07T09:06:44;17.77;;;8.07;;
73747;SDS011;62056;52.130;5.428;2023-12-07T09:09:11;21.80;;;8.20;;
73747;SDS011;62056;52.130;5.428;2023-12-07T09:11:42;10.70;;;7.20;;
73747;SDS011;62056;52.130;5.428;2023-12-07T09:14:09;20.98;;;6.78;;
73747;SDS011;62056;52.130;5.428;2023-12-07T09:16:43;13.95;;;6.60;;
73747;SDS011;62056;52.130;5.428;2023-12-07T09:19:13;8.15;;;6.40;;
73747;SDS011;62056;52.130;5.428;2023-12-07T09:21:50;13.50;;;5.15;;
73747;SDS011;62056;52.130;5.428;2023-12-07T09:24:17;13.53;;;7.00;;
73747;SDS011;62056;52.130;5.428;2023-12-07T09:26:44;13.57;;;7.38;;
73747;SDS011;62056;52.130;5.428;2023-12-07T09:29:11;16.98;;;7.10;;
73747;SDS011;62056;52.130;5.428;2023-12-07T09:31:44;9.48;;;6.40;;
73747;SDS011;62056;52.130;5.428;2023-12-07T09:34:14;16.17;;;6.78;;
73747;SDS011;62056;52.130;5.428;2023-12-07T09:36:45;14.97;;;7.13;;
73747;SDS011;62056;52.130;5.428;2023-12-07T09:39:12;11.52;;;7.93;;
73747;SDS011;62056;52.130;5.428;2023-12-07T09:41:39;13.27;;;7.78;;
73747;SDS011;62056;52.130;5.428;2023-12-07T09:44:09;14.85;;;6.90;;
73747;SDS011;62056;52.130;5.428;2023-12-07T09:46:37;6.65;;;4.85;;
73747;SDS011;62056;52.130;5.428;2023-12-07T09:49:03;13.80;;;6.10;;
73747;SDS011;62056;52.130;5.428;2023-12-07T09:51:37;12.10;;;6.15;;
73747;SDS011;62056;52.130;5.428;2023-12-07T09:54:05;7.43;;;5.10;;
73747;SDS011;62056;52.130;5.428;2023-12-07T09:56:33;8.02;;;5.60;;
73747;SDS011;62056;52.130;5.428;2023-12-07T09:59:00;19.10;;;5.30;;
73747;SDS011;62056;52.130;5.428;2023-12-07T10:01:29;8.23;;;4.53;;
73747;SDS011;62056;52.130;5.428;2023-12-07T10:06:44;8.60;;;5.43;;
73747;SDS011;62056;52.130;5.428;2023-12-07T10:09:14;6.93;;;5.20;;
73747;SDS011;62056;52.130;5.428;2023-12-07T10:12:01;6.90;;;4.55;;
73747;SDS011;62056;52.130;5.428;2023-12-07T10:14:29;6.20;;;4.07;;
73747;SDS011;62056;52.130;5.428;2023-12-07T10:17:02;5.80;;;4.43;;
73747;SDS011;62056;52.130;5.428;2023-12-07T10:19:30;14.73;;;3.88;;
73747;SDS011;62056;52.130;5.428;2023-12-07T10:21:58;6.57;;;4.22;;
73747;SDS011;62056;52.130;5.428;2023-12-07T10:24:26;4.60;;;3.47;;
73747;SDS011;62056;52.130;5.428;2023-12-07T10:26:54;5.67;;;3.43;;
73747;SDS011;62056;52.130;5.428;2023-12-07T10:29:31;5.70;;;3.70;;
73747;SDS011;62056;52.130;5.428;2023-12-07T10:32:04;4.47;;;3.58;;
73747;SDS011;62056;52.130;5.428;2023-12-07T10:34:32;6.05;;;3.55;;
73747;SDS011;62056;52.130;5.428;2023-12-07T10:37:00;7.30;;;3.45;;
73747;SDS011;62056;52.130;5.428;2023-12-07T10:39:27;5.20;;;3.37;;
73747;SDS011;62056;52.130;5.428;2023-12-07T10:42:02;6.22;;;4.00;;
73747;SDS011;62056;52.130;5.428;2023-12-07T10:44:36;5.65;;;3.92;;
73747;SDS011;62056;52.130;5.428;2023-12-07T10:47:08;5.65;;;3.50;;
73747;SDS011;62056;52.130;5.428;2023-12-07T10:49:39;6.97;;;3.17;;
73747;SDS011;62056;52.130;5.428;2023-12-07T10:52:13;6.77;;;3.30;;
73747;SDS011;62056;52.130;5.428;2023-12-07T10:54:53;8.48;;;5.47;;
73747;SDS011;62056;52.130;5.428;2023-12-07T10:57:33;6.22;;;4.93;;
73747;SDS011;62056;52.130;5.428;2023-12-07T11:00:05;5.38;;;4.05;;
73747;SDS011;62056;52.130;5.428;2023-12-07T11:02:35;4.22;;;2.85;;
73747;SDS011;62056;52.130;5.428;2023-12-07T11:05:14;5.83;;;4.00;;
73747;SDS011;62056;52.130;5.428;2023-12-07T11:07:54;5.63;;;4.10;;
73747;SDS011;62056;52.130;5.428;2023-12-07T11:10:38;12.57;;;4.60;;
73747;SDS011;62056;52.130;5.428;2023-12-07T11:15:45;4.88;;;3.22;;
73747;SDS011;62056;52.130;5.428;2023-12-07T11:18:12;5.67;;;3.67;;
73747;SDS011;62056;52.130;5.428;2023-12-07T11:20:46;5.70;;;4.03;;
73747;SDS011;62056;52.130;5.428;2023-12-07T11:23:18;19.10;;;7.22;;
73747;SDS011;62056;52.130;5.428;2023-12-07T11:25:46;5.82;;;3.65;;
73747;SDS011;62056;52.130;5.428;2023-12-07T11:28:14;4.97;;;4.32;;
73747;SDS011;62056;52.130;5.428;2023-12-07T11:30:42;6.97;;;4.97;;
73747;SDS011;62056;52.130;5.428;2023-12-07T11:33:12;7.00;;;4.60;;
73747;SDS011;62056;52.130;5.428;2023-12-07T11:41:53;9.40;;;4.82;;
73747;SDS011;62056;52.130;5.428;2023-12-07T11:44:25;6.43;;;3.33;;
73747;SDS011;62056;52.130;5.428;2023-12-07T11:47:00;8.02;;;4.82;;
73747;SDS011;62056;52.130;5.428;2023-12-07T11:49:31;7.72;;;4.50;;
73747;SDS011;62056;52.130;5.428;2023-12-07T11:52:14;6.53;;;4.97;;
73747;SDS011;62056;52.130;5.428;2023-12-07T11:54:47;8.35;;;4.95;;
73747;SDS011;62056;52.130;5.428;2023-12-07T11:57:16;6.93;;;4.57;;
73747;SDS011;62056;52.130;5.428;2023-12-07T11:59:44;10.73;;;5.03;;
73747;SDS011;62056;52.130;5.428;2023-12-07T12:02:11;11.80;;;6.63;;
73747;SDS011;62056;52.130;5.428;2023-12-07T12:04:43;9.73;;;5.43;;
73747;SDS011;62056;52.130;5.428;2023-12-07T12:07:11;8.05;;;4.72;;
73747;SDS011;62056;52.130;5.428;2023-12-07T12:09:38;12.70;;;5.70;;
73747;SDS011;62056;52.130;5.428;2023-12-07T12:12:06;13.00;;;6.57;;
73747;SDS011;62056;52.130;5.428;2023-12-07T12:14:33;11.55;;;6.47;;
73747;SDS011;62056;52.130;5.428;2023-12-07T12:17:00;9.80;;;6.63;;
73747;SDS011;62056;52.130;5.428;2023-12-07T12:19:27;10.05;;;6.35;;
73747;SDS011;62056;52.130;5.428;2023-12-07T12:22:03;12.60;;;5.03;;
73747;SDS011;62056;52.130;5.428;2023-12-07T12:24:37;14.68;;;6.68;;
73747;SDS011;62056;52.130;5.428;2023-12-07T12:27:06;12.80;;;6.72;;
73747;SDS011;62056;52.130;5.428;2023-12-07T12:29:33;13.95;;;6.60;;
73747;SDS011;62056;52.130;5.428;2023-12-07T12:32:04;14.85;;;6.60;;
73747;SDS011;62056;52.130;5.428;2023-12-07T12:34:33;9.43;;;5.70;;
73747;SDS011;62056;52.130;5.428;2023-12-07T12:37:01;11.60;;;7.25;;
73747;SDS011;62056;52.130;5.428;2023-12-07T12:39:29;11.23;;;6.53;;
73747;SDS011;62056;52.130;5.428;2023-12-07T12:42:00;12.90;;;7.00;;
73747;SDS011;62056;52.130;5.428;2023-12-07T12:44:27;15.77;;;7.70;;
73747;SDS011;62056;52.130;5.428;2023-12-07T12:47:06;10.53;;;6.20;;
73747;SDS011;62056;52.130;5.428;2023-12-07T12:49:43;12.25;;;6.53;;
73747;SDS011;62056;52.130;5.428;2023-12-07T12:52:11;14.98;;;7.47;;
73747;SDS011;62056;52.130;5.428;2023-12-07T12:54:43;14.63;;;7.38;;
73747;SDS011;62056;52.130;5.428;2023-12-07T12:57:10;13.50;;;7.03;;
73747;SDS011;62056;52.130;5.428;2023-12-07T12:59:37;17.50;;;7.30;;
73747;SDS011;62056;52.130;5.428;2023-12-07T13:02:08;10.80;;;6.88;;
73747;SDS011;62056;52.130;5.428;2023-12-07T13:04:36;12.73;;;7.18;;
73747;SDS011;62056;52.130;5.428;2023-12-07T13:07:09;12.13;;;6.60;;
73747;SDS011;62056;52.130;5.428;2023-12-07T13:09:37;11.52;;;7.05;;
73747;SDS011;62056;52.130;5.428;2023-12-07T13:12:04;15.50;;;7.60;;
73747;SDS011;62056;52.130;5.428;2023-12-07T13:14:33;14.45;;;8.55;;
73747;SDS011;62056;52.130;5.428;2023-12-07T13:17:04;17.85;;;7.53;;
73747;SDS011;62056;52.130;5.428;2023-12-07T13:19:33;14.00;;;9.88;;
73747;SDS011;62056;52.130;5.428;2023-12-07T13:22:04;22.92;;;10.20;;
73747;SDS011;62056;52.130;5.428;2023-12-07T13:24:32;14.57;;;8.83;;
73747;SDS011;62056;52.130;5.428;2023-12-07T13:27:02;16.30;;;8.98;;
73747;SDS011;62056;52.130;5.428;2023-12-07T13:29:30;14.52;;;8.23;;
73747;SDS011;62056;52.130;5.428;2023-12-07T13:32:02;18.80;;;8.05;;
73747;SDS011;62056;52.130;5.428;2023-12-07T13:34:38;17.58;;;9.07;;
73747;SDS011;62056;52.130;5.428;2023-12-07T13:37:12;13.67;;;7.80;;
73747;SDS011;62056;52.130;5.428;2023-12-07T13:39:45;13.40;;;8.50;;
73747;SDS011;62056;52.130;5.428;2023-12-07T13:42:16;14.05;;;8.48;;
73747;SDS011;62056;52.130;5.428;2023-12-07T13:44:48;14.02;;;8.60;;
73747;SDS011;62056;52.130;5.428;2023-12-07T13:47:46;13.68;;;8.55;;
73747;SDS011;62056;52.130;5.428;2023-12-07T13:50:18;15.03;;;8.67;;
73747;SDS011;62056;52.130;5.428;2023-12-07T13:53:11;13.65;;;7.60;;
73747;SDS011;62056;52.130;5.428;2023-12-07T13:55:39;16.23;;;9.23;;
73747;SDS011;62056;52.130;5.428;2023-12-07T13:58:11;15.70;;;9.00;;
73747;SDS011;62056;52.130;5.428;2023-12-07T14:00:39;15.35;;;8.68;;
73747;SDS011;62056;52.130;5.428;2023-12-07T14:03:14;17.27;;;8.33;;
73747;SDS011;62056;52.130;5.428;2023-12-07T14:05:41;20.27;;;10.13;;
73747;SDS011;62056;52.130;5.428;2023-12-07T14:08:08;15.82;;;8.75;;
73747;SDS011;62056;52.130;5.428;2023-12-07T14:10:36;19.40;;;9.02;;
73747;SDS011;62056;52.130;5.428;2023-12-07T14:13:03;19.48;;;8.98;;
73747;SDS011;62056;52.130;5.428;2023-12-07T14:15:34;19.90;;;8.37;;
73747;SDS011;62056;52.130;5.428;2023-12-07T14:18:12;12.38;;;8.20;;
73747;SDS011;62056;52.130;5.428;2023-12-07T14:20:41;19.58;;;10.45;;
73747;SDS011;62056;52.130;5.428;2023-12-07T14:23:27;17.05;;;9.18;;
73747;SDS011;62056;52.130;5.428;2023-12-07T14:26:10;17.15;;;8.30;;
73747;SDS011;62056;52.130;5.428;2023-12-07T14:28:37;20.33;;;10.30;;
73747;SDS011;62056;52.130;5.428;2023-12-07T14:31:09;18.92;;;9.27;;
73747;SDS011;62056;52.130;5.428;2023-12-07T14:33:43;16.25;;;9.13;;
73747;SDS011;62056;52.130;5.428;2023-12-07T14:36:15;20.75;;;9.73;;
73747;SDS011;62056;52.130;5.428;2023-12-07T14:38:42;19.45;;;10.25;;
73747;SDS011;62056;52.130;5.428;2023-12-07T14:41:22;16.67;;;9.60;;
73747;SDS011;62056;52.130;5.428;2023-12-07T14:43:51;15.05;;;8.02;;
73747;SDS011;62056;52.130;5.428;2023-12-07T14:46:18;15.80;;;8.73;;
73747;SDS011;62056;52.130;5.428;2023-12-07T14:48:46;19.70;;;10.10;;
73747;SDS011;62056;52.130;5.428;2023-12-07T14:54:22;14.87;;;8.40;;
73747;SDS011;62056;52.130;5.428;2023-12-07T14:57:11;17.23;;;10.00;;
73747;SDS011;62056;52.130;5.428;2023-12-07T14:59:40;19.17;;;9.90;;
73747;SDS011;62056;52.130;5.428;2023-12-07T15:02:10;16.17;;;8.77;;
73747;SDS011;62056;52.130;5.428;2023-12-07T15:04:39;20.77;;;10.05;;
73747;SDS011;62056;52.130;5.428;2023-12-07T15:07:06;19.50;;;8.73;;